createdAt,value
2018-09-21T00:00:08.505Z,99441.00
2018-09-21T00:02:37.925Z,99435.00
2018-09-21T00:05:07.396Z,99436.00
2018-09-21T00:07:36.651Z,99424.00
2018-09-21T00:10:10.093Z,99434.00
2018-09-21T00:12:39.157Z,99437.00
2018-09-21T00:15:08.218Z,99434.00
2018-09-21T00:17:37.314Z,99441.00
2018-09-21T00:20:13.005Z,99433.00
2018-09-21T00:22:42.421Z,99429.00
2018-09-21T00:25:11.612Z,99426.00
2018-09-21T00:27:40.852Z,99426.00
2018-09-21T00:30:10.057Z,99416.00
2018-09-21T00:32:39.033Z,99419.00
2018-09-21T00:35:08.208Z,99414.00
2018-09-21T00:37:37.710Z,99414.00
2018-09-21T00:40:07.036Z,99406.00
2018-09-21T00:42:36.308Z,99418.00
2018-09-21T00:45:05.641Z,99408.00
2018-09-21T00:47:34.857Z,99409.00
2018-09-21T00:50:05.239Z,99399.00
2018-09-21T00:52:34.442Z,99407.00
2018-09-21T00:55:05.557Z,99400.00
2018-09-21T00:57:34.838Z,99405.00
2018-09-21T01:00:04.106Z,99398.00
2018-09-21T01:02:33.128Z,99400.00
2018-09-21T01:05:02.381Z,99397.00
2018-09-21T01:07:31.317Z,99392.00
2018-09-21T01:10:00.532Z,99384.00
2018-09-21T01:12:30.073Z,99394.00
2018-09-21T01:14:59.499Z,99378.00
2018-09-21T01:17:28.684Z,99379.00
2018-09-21T01:19:57.897Z,99381.00
2018-09-21T01:22:27.035Z,99373.00
2018-09-21T01:24:55.943Z,99377.00
2018-09-21T01:27:25.151Z,99375.00
2018-09-21T01:29:54.325Z,99373.00
2018-09-21T01:32:23.509Z,99369.00
2018-09-21T01:34:52.662Z,99363.00
2018-09-21T01:37:22.909Z,99370.00
2018-09-21T01:39:52.111Z,99364.00
2018-09-21T01:42:21.473Z,99357.00
2018-09-21T01:44:50.818Z,99354.00
2018-09-21T01:47:20.107Z,99354.00
2018-09-21T01:49:49.306Z,99351.00
2018-09-21T01:52:18.288Z,99353.00
2018-09-21T01:54:47.526Z,99349.00
2018-09-21T01:57:17.265Z,99348.00
2018-09-21T01:59:46.240Z,99351.00
2018-09-21T02:02:15.259Z,99351.00
2018-09-21T02:04:45.709Z,99341.00
2018-09-21T02:07:14.924Z,99344.00
2018-09-21T02:09:44.204Z,99336.00
2018-09-21T02:12:13.292Z,99338.00
2018-09-21T02:14:42.475Z,99338.00
2018-09-21T02:17:11.615Z,99335.00
2018-09-21T02:19:40.804Z,99326.00
2018-09-21T02:22:09.990Z,99322.00
2018-09-21T02:24:39.198Z,99327.00
2018-09-21T02:27:09.361Z,99321.00
2018-09-21T02:29:38.353Z,99319.00
2018-09-21T02:32:07.271Z,99315.00
2018-09-21T02:34:36.442Z,99316.00
2018-09-21T02:37:05.583Z,99314.00
2018-09-21T02:39:36.117Z,99316.00
2018-09-21T02:42:05.039Z,99310.00
2018-09-21T02:44:35.259Z,99309.00
2018-09-21T02:47:04.520Z,99304.00
2018-09-21T02:49:33.745Z,99293.00
2018-09-21T02:52:02.938Z,99297.00
2018-09-21T02:54:36.489Z,99294.00
2018-09-21T02:57:05.995Z,99293.00
2018-09-21T02:59:35.178Z,99289.00
2018-09-21T03:02:04.147Z,99289.00
2018-09-21T03:04:33.109Z,99281.00
2018-09-21T03:07:02.313Z,99278.00
2018-09-21T03:09:31.477Z,99282.00
2018-09-21T03:12:00.655Z,99268.00
2018-09-21T03:14:29.821Z,99271.00
2018-09-21T03:16:58.976Z,99271.00
2018-09-21T03:19:28.141Z,99262.00
2018-09-21T03:21:57.372Z,99270.00
2018-09-21T03:24:27.838Z,99268.00
2018-09-21T03:26:56.784Z,99269.00
2018-09-21T03:29:25.947Z,99268.00
2018-09-21T03:31:55.082Z,99259.00
2018-09-21T03:34:24.292Z,99260.00
2018-09-21T03:36:53.507Z,99258.00
2018-09-21T03:39:22.586Z,99252.00
2018-09-21T03:41:51.693Z,99256.00
2018-09-21T03:44:21.037Z,99250.00
2018-09-21T03:46:50.168Z,99254.00
2018-09-21T03:49:19.364Z,99241.00
2018-09-21T03:51:48.398Z,99247.00
2018-09-21T03:54:17.603Z,99244.00
2018-09-21T03:56:46.571Z,99245.00
2018-09-21T03:59:15.545Z,99239.00
2018-09-21T04:01:44.824Z,99233.00
2018-09-21T04:04:14.114Z,99230.00
2018-09-21T04:06:43.475Z,99236.00
2018-09-21T04:09:12.396Z,99226.00
2018-09-21T04:11:41.611Z,99213.00
2018-09-21T04:14:10.603Z,99217.00
2018-09-21T04:16:39.928Z,99207.00
2018-09-21T04:19:08.976Z,99204.00
2018-09-21T04:21:38.293Z,99201.00
2018-09-21T04:24:07.697Z,99198.00
2018-09-21T04:26:36.941Z,99195.00
2018-09-21T04:29:06.334Z,99192.00
2018-09-21T04:31:35.532Z,99195.00
2018-09-21T04:34:04.435Z,99180.00
2018-09-21T04:36:33.636Z,99180.00
2018-09-21T04:39:04.766Z,99181.00
2018-09-21T04:41:33.703Z,99172.00
2018-09-21T04:44:02.701Z,99168.00
2018-09-21T04:49:11.906Z,99163.00
2018-09-21T04:51:41.295Z,99162.00
2018-09-21T04:54:10.255Z,99175.00
2018-09-21T04:56:39.542Z,99169.00
2018-09-21T04:59:08.765Z,99173.00
2018-09-21T05:01:37.960Z,99168.00
2018-09-21T05:04:06.887Z,99167.00
2018-09-21T05:06:36.180Z,99168.00
2018-09-21T05:09:07.735Z,99164.00
2018-09-21T05:11:36.935Z,99158.00
2018-09-21T05:14:10.404Z,99167.00
2018-09-21T05:16:39.822Z,99165.00
2018-09-21T05:19:09.016Z,99164.00
2018-09-21T05:21:38.307Z,99165.00
2018-09-21T05:24:07.855Z,99159.00
2018-09-21T05:26:37.076Z,99156.00
2018-09-21T05:29:06.780Z,99164.00
2018-09-21T05:31:36.593Z,99150.00
2018-09-21T05:34:05.891Z,99158.00
2018-09-21T05:36:34.814Z,99148.00
2018-09-21T05:39:04.048Z,99156.00
2018-09-21T05:41:32.995Z,99153.00
2018-09-21T05:44:01.966Z,99151.00
2018-09-21T05:46:31.510Z,99163.00
2018-09-21T05:49:00.529Z,99153.00
2018-09-21T05:51:29.694Z,99160.00
2018-09-21T05:53:59.485Z,99157.00
2018-09-21T05:56:28.768Z,99147.00
2018-09-21T05:58:57.911Z,99146.00
2018-09-21T06:01:27.817Z,99153.00
2018-09-21T06:03:56.736Z,99162.00
2018-09-21T06:06:25.688Z,99155.00
2018-09-21T06:08:54.910Z,99153.00
2018-09-21T06:11:23.876Z,99153.00
2018-09-21T06:13:53.088Z,99154.00
2018-09-21T06:16:22.472Z,99150.00
2018-09-21T06:18:51.660Z,99156.00
2018-09-21T06:21:20.890Z,99145.00
2018-09-21T06:23:50.120Z,99147.00
2018-09-21T06:26:19.365Z,99145.00
2018-09-21T06:28:48.317Z,99149.00
2018-09-21T06:31:17.463Z,99143.00
2018-09-21T06:33:46.400Z,99145.00
2018-09-21T06:36:15.617Z,99151.00
2018-09-21T06:38:44.807Z,99142.00
2018-09-21T06:41:13.719Z,99148.00
2018-09-21T06:43:42.901Z,99136.00
2018-09-21T06:46:12.749Z,99134.00
2018-09-21T06:48:42.105Z,99136.00
2018-09-21T06:51:11.285Z,99134.00
2018-09-21T06:53:40.566Z,99126.00
2018-09-21T06:56:09.720Z,99117.00
2018-09-21T06:58:38.929Z,99115.00
2018-09-21T07:01:08.108Z,99118.00
2018-09-21T07:03:37.340Z,99119.00
2018-09-21T07:06:06.348Z,99111.00
2018-09-21T07:08:35.316Z,99109.00
2018-09-21T07:11:04.578Z,99091.00
2018-09-21T07:13:33.727Z,99106.00
2018-09-21T07:16:02.913Z,99108.00
2018-09-21T07:18:32.083Z,99107.00
2018-09-21T07:21:01.458Z,99114.00
2018-09-21T07:23:30.399Z,99108.00
2018-09-21T07:25:59.349Z,99117.00
2018-09-21T07:28:28.496Z,99107.00
2018-09-21T07:30:57.698Z,99109.00
2018-09-21T07:33:26.625Z,99110.00
2018-09-21T07:35:55.826Z,99108.00
2018-09-21T07:38:25.022Z,99103.00
2018-09-21T07:40:54.180Z,99102.00
2018-09-21T07:43:23.374Z,99106.00
2018-09-21T07:45:52.585Z,99102.00
2018-09-21T07:48:21.755Z,99096.00
2018-09-21T07:50:51.003Z,99095.00
2018-09-21T07:53:20.479Z,99098.00
2018-09-21T07:55:49.828Z,99092.00
2018-09-21T07:58:19.402Z,99088.00
2018-09-21T08:00:48.705Z,99092.00
2018-09-21T08:03:17.952Z,99083.00
2018-09-21T08:05:46.948Z,99089.00
2018-09-21T08:08:16.652Z,99087.00
2018-09-21T08:10:45.649Z,99088.00
2018-09-21T08:13:15.906Z,99077.00
2018-09-21T08:15:45.177Z,99073.00
2018-09-21T08:18:14.473Z,99062.00
2018-09-21T08:20:43.994Z,99067.00
2018-09-21T08:23:13.180Z,99072.00
2018-09-21T08:25:42.181Z,99063.00
2018-09-21T08:28:11.427Z,99056.00
2018-09-21T08:30:41.941Z,99044.00
2018-09-21T08:33:11.184Z,99049.00
2018-09-21T08:35:40.137Z,99037.00
2018-09-21T08:38:09.086Z,99036.00
2018-09-21T08:40:38.054Z,99035.00
2018-09-21T08:43:07.048Z,99018.00
2018-09-21T08:45:36.298Z,99027.00
2018-09-21T08:48:05.439Z,99019.00
2018-09-21T08:50:34.403Z,99017.00
2018-09-21T08:53:03.588Z,99011.00
2018-09-21T08:55:32.796Z,99016.00
2018-09-21T08:58:03.842Z,99024.00
2018-09-21T09:00:33.046Z,99019.00
2018-09-21T09:03:02.338Z,99027.00
2018-09-21T09:05:31.167Z,99006.00
2018-09-21T09:08:00.349Z,99004.00
2018-09-21T09:10:29.259Z,99000.00
2018-09-21T09:12:58.683Z,99005.00
2018-09-21T09:15:27.917Z,98995.00
2018-09-21T09:17:57.180Z,98994.00
2018-09-21T09:20:26.128Z,98999.00
2018-09-21T09:22:55.345Z,98987.00
2018-09-21T09:25:24.636Z,98990.00
2018-09-21T09:27:53.815Z,98985.00
2018-09-21T09:30:24.709Z,98981.00
2018-09-21T09:32:53.741Z,98973.00
2018-09-21T09:35:22.908Z,98968.00
2018-09-21T09:37:52.265Z,98968.00
2018-09-21T09:40:21.208Z,98964.00
2018-09-21T09:42:50.632Z,98962.00
2018-09-21T09:45:19.993Z,98955.00
2018-09-21T09:47:49.249Z,98953.00
2018-09-21T09:50:18.490Z,98950.00
2018-09-21T09:52:47.716Z,98946.00
2018-09-21T09:55:17.089Z,98953.00
2018-09-21T09:57:47.057Z,98952.00
2018-09-21T10:00:20.364Z,98956.00
2018-09-21T10:02:49.619Z,98952.00
2018-09-21T10:05:18.862Z,98942.00
2018-09-21T10:07:48.250Z,98942.00
2018-09-21T10:10:17.535Z,98941.00
2018-09-21T10:12:46.825Z,98942.00
2018-09-21T10:15:16.025Z,98931.00
2018-09-21T10:17:46.179Z,98933.00
2018-09-21T10:20:16.382Z,98921.00
2018-09-21T10:22:46.960Z,98910.00
2018-09-21T10:25:16.225Z,98902.00
2018-09-21T10:27:45.377Z,98905.00
2018-09-21T10:30:14.349Z,98907.00
2018-09-21T10:32:43.459Z,98894.00
2018-09-21T10:35:12.421Z,98882.00
2018-09-21T10:37:41.697Z,98890.00
2018-09-21T10:40:10.828Z,98883.00
2018-09-21T10:42:40.078Z,98883.00
2018-09-21T10:45:08.972Z,98877.00
2018-09-21T10:47:38.226Z,98874.00
2018-09-21T10:50:07.317Z,98884.00
2018-09-21T10:52:36.522Z,98881.00
2018-09-21T10:55:05.961Z,98885.00
2018-09-21T10:57:35.260Z,98891.00
2018-09-21T11:00:05.440Z,98894.00
2018-09-21T11:02:35.075Z,98890.00
2018-09-21T11:05:05.050Z,98890.00
2018-09-21T11:07:34.229Z,98884.00
2018-09-21T11:10:03.606Z,98879.00
2018-09-21T11:12:32.928Z,98878.00
2018-09-21T11:15:02.191Z,98880.00
2018-09-21T11:17:31.418Z,98882.00
2018-09-21T11:20:00.878Z,98881.00
2018-09-21T11:22:30.157Z,98879.00
2018-09-21T11:24:59.487Z,98885.00
2018-09-21T11:27:28.768Z,98876.00
2018-09-21T11:29:57.775Z,98876.00
2018-09-21T11:32:26.736Z,98870.00
2018-09-21T11:34:55.903Z,98870.00
2018-09-21T11:37:24.972Z,98864.00
2018-09-21T11:39:53.954Z,98875.00
2018-09-21T11:42:22.891Z,98859.00
2018-09-21T11:44:52.141Z,98870.00
2018-09-21T11:47:21.315Z,98861.00
2018-09-21T11:49:50.468Z,98860.00
2018-09-21T11:52:19.680Z,98852.00
2018-09-21T11:54:48.873Z,98845.00
2018-09-21T11:57:18.080Z,98850.00
2018-09-21T11:59:47.024Z,98838.00
2018-09-21T12:02:16.370Z,98839.00
2018-09-21T12:04:45.520Z,98832.00
2018-09-21T12:07:14.735Z,98834.00
2018-09-21T12:09:43.975Z,98832.00
2018-09-21T12:12:12.916Z,98834.00
2018-09-21T12:14:41.892Z,98828.00
2018-09-21T12:17:11.188Z,98827.00
2018-09-21T12:19:40.093Z,98825.00
2018-09-21T12:22:09.356Z,98828.00
2018-09-21T12:24:38.632Z,98828.00
2018-09-21T12:27:07.847Z,98822.00
2018-09-21T12:29:36.836Z,98821.00
2018-09-21T12:32:06.096Z,98805.00
2018-09-21T12:34:35.116Z,98799.00
2018-09-21T12:37:04.503Z,98802.00
2018-09-21T12:39:33.787Z,98781.00
2018-09-21T12:42:03.082Z,98770.00
2018-09-21T12:44:32.383Z,98779.00
2018-09-21T12:47:01.708Z,98769.00
2018-09-21T12:49:31.872Z,98767.00
2018-09-21T12:52:01.064Z,98755.00
2018-09-21T12:54:30.299Z,98755.00
2018-09-21T12:56:59.582Z,98759.00
2018-09-21T12:59:28.538Z,98760.00
2018-09-21T13:01:57.818Z,98762.00
2018-09-21T13:04:26.841Z,98770.00
2018-09-21T13:06:56.181Z,98770.00
2018-09-21T13:09:25.280Z,98753.00
2018-09-21T13:11:54.501Z,98754.00
2018-09-21T13:14:23.830Z,98752.00
2018-09-21T13:16:53.336Z,98735.00
2018-09-21T13:19:22.379Z,98734.00
2018-09-21T13:21:51.658Z,98730.00
2018-09-21T13:24:20.928Z,98735.00
2018-09-21T13:26:50.079Z,98733.00
2018-09-21T13:29:19.317Z,98733.00
2018-09-21T13:31:48.484Z,98734.00
2018-09-21T13:34:17.476Z,98727.00
2018-09-21T13:36:46.551Z,98738.00
2018-09-21T13:39:15.674Z,98737.00
2018-09-21T13:41:44.901Z,98731.00
2018-09-21T13:44:14.792Z,98743.00
2018-09-21T13:46:44.147Z,98732.00
2018-09-21T13:49:13.479Z,98734.00
2018-09-21T13:51:42.880Z,98740.00
2018-09-21T13:54:12.125Z,98739.00
2018-09-21T13:56:41.333Z,98737.00
2018-09-21T13:59:10.658Z,98738.00
2018-09-21T14:01:40.097Z,98746.00
2018-09-21T14:04:09.348Z,98740.00
2018-09-21T14:06:38.316Z,98742.00
2018-09-21T14:09:08.341Z,98737.00
2018-09-21T14:11:37.348Z,98732.00
2018-09-21T14:14:06.679Z,98744.00
2018-09-21T14:16:35.833Z,98756.00
2018-09-21T14:19:05.121Z,98745.00
2018-09-21T14:21:34.620Z,98736.00
2018-09-21T14:24:03.619Z,98748.00
2018-09-21T14:26:32.826Z,98746.00
2018-09-21T14:29:02.079Z,98749.00
2018-09-21T14:31:31.031Z,98753.00
2018-09-21T14:34:00.285Z,98767.00
2018-09-21T14:36:29.242Z,98765.00
2018-09-21T14:38:58.444Z,98773.00
2018-09-21T14:41:27.360Z,98784.00
2018-09-21T14:43:56.569Z,98777.00
2018-09-21T14:46:25.753Z,98776.00
2018-09-21T14:48:54.899Z,98772.00
2018-09-21T14:51:24.101Z,98767.00
2018-09-21T14:53:53.354Z,98774.00
2018-09-21T14:56:22.578Z,98782.00
2018-09-21T14:58:52.071Z,98777.00
2018-09-21T15:01:21.360Z,98826.00
2018-09-21T15:03:50.706Z,98843.00
2018-09-21T15:06:20.963Z,98855.00
2018-09-21T15:08:50.011Z,98882.00
2018-09-21T15:11:18.995Z,98891.00
2018-09-21T15:13:47.997Z,98930.00
2018-09-21T15:16:16.918Z,98950.00
2018-09-21T15:18:46.104Z,98984.00
2018-09-21T15:21:15.341Z,99006.00
2018-09-21T15:23:44.529Z,99010.00
2018-09-21T15:26:13.763Z,99014.00
2018-09-21T15:28:42.773Z,99039.00
2018-09-21T15:31:11.935Z,99059.00
2018-09-21T15:33:40.905Z,99063.00
2018-09-21T15:36:10.145Z,99058.00
2018-09-21T15:38:39.392Z,99035.00
2018-09-21T15:41:08.334Z,99039.00
2018-09-21T15:43:37.602Z,99023.00
2018-09-21T15:46:06.804Z,99035.00
2018-09-21T15:48:36.050Z,99050.00
2018-09-21T15:51:05.221Z,99060.00
2018-09-21T15:53:34.456Z,99085.00
2018-09-21T15:56:03.804Z,99090.00
2018-09-21T15:58:33.000Z,99099.00
2018-09-21T16:01:02.185Z,99091.00
2018-09-21T16:03:31.153Z,99093.00
2018-09-21T16:06:00.110Z,99083.00
2018-09-21T16:08:29.056Z,99080.00
2018-09-21T16:10:58.301Z,99095.00
2018-09-21T16:13:27.280Z,99091.00
2018-09-21T16:15:56.411Z,99106.00
2018-09-21T16:18:25.433Z,99100.00
2018-09-21T16:20:54.465Z,99098.00
2018-09-21T16:23:23.689Z,99108.00
2018-09-21T16:25:52.841Z,99090.00
2018-09-21T16:28:22.317Z,99093.00
2018-09-21T16:30:51.574Z,99092.00
2018-09-21T16:33:20.519Z,99099.00
2018-09-21T16:35:49.848Z,99104.00
2018-09-21T16:38:18.829Z,99110.00
2018-09-21T16:40:47.988Z,99122.00
2018-09-21T16:43:17.188Z,99133.00
2018-09-21T16:45:46.344Z,99127.00
2018-09-21T16:48:15.481Z,99121.00
2018-09-21T16:50:44.756Z,99132.00
2018-09-21T16:53:13.958Z,99139.00
2018-09-21T16:55:42.880Z,99113.00
2018-09-21T16:58:12.113Z,99134.00
2018-09-21T17:00:41.052Z,99151.00
2018-09-21T17:03:10.283Z,99152.00
2018-09-21T17:05:39.503Z,99167.00
2018-09-21T17:08:08.763Z,99168.00
2018-09-21T17:10:37.977Z,99156.00
2018-09-21T17:13:06.999Z,99134.00
2018-09-21T17:15:36.189Z,99149.00
2018-09-21T17:18:05.621Z,99169.00
2018-09-21T17:20:34.774Z,99169.00
2018-09-21T17:23:03.972Z,99145.00
2018-09-21T17:25:33.430Z,99121.00
2018-09-21T17:28:02.714Z,99133.00
2018-09-21T17:30:31.772Z,99157.00
2018-09-21T17:33:00.801Z,99150.00
2018-09-21T17:35:30.873Z,99159.00
2018-09-21T17:38:00.032Z,99177.00
2018-09-21T17:40:28.993Z,99186.00
2018-09-21T17:42:58.198Z,99207.00
2018-09-21T17:45:27.482Z,99264.00
2018-09-21T17:47:56.701Z,99277.00
2018-09-21T17:50:25.625Z,99259.00
2018-09-21T17:52:54.897Z,99240.00
2018-09-21T17:55:30.541Z,99239.00
2018-09-21T17:57:59.758Z,99215.00
2018-09-21T18:00:28.939Z,99190.00
2018-09-21T18:02:58.112Z,99235.00
2018-09-21T18:05:27.984Z,99234.00
2018-09-21T18:07:56.952Z,99273.00
2018-09-21T18:10:26.209Z,99272.00
2018-09-21T18:12:55.363Z,99266.00
2018-09-21T18:15:24.575Z,99279.00
2018-09-21T18:17:53.521Z,99279.00
2018-09-21T18:20:22.831Z,99308.00
2018-09-21T18:22:51.778Z,99305.00
2018-09-21T18:25:20.709Z,99264.00
2018-09-21T18:27:49.849Z,99268.00
2018-09-21T18:30:18.792Z,99288.00
2018-09-21T18:32:47.952Z,99298.00
2018-09-21T18:35:16.903Z,99318.00
2018-09-21T18:37:46.047Z,99320.00
2018-09-21T18:40:15.051Z,99318.00
2018-09-21T18:42:44.236Z,99318.00
2018-09-21T18:45:13.468Z,99322.00
2018-09-21T18:47:42.652Z,99330.00
2018-09-21T18:50:11.889Z,99334.00
2018-09-21T18:52:40.845Z,99340.00
2018-09-21T18:55:10.028Z,99347.00
2018-09-21T18:57:38.983Z,99362.00
2018-09-21T19:00:08.505Z,99365.00
2018-09-21T19:02:37.700Z,99362.00
2018-09-21T19:05:06.625Z,99364.00
2018-09-21T19:07:35.560Z,99367.00
2018-09-21T19:10:04.714Z,99375.00
2018-09-21T19:12:33.892Z,99387.00
2018-09-21T19:15:03.120Z,99393.00
2018-09-21T19:17:32.301Z,99398.00
2018-09-21T19:20:01.483Z,99407.00
2018-09-21T19:22:30.682Z,99405.00
2018-09-21T19:24:59.832Z,99415.00
2018-09-21T19:27:29.025Z,99418.00
2018-09-21T19:29:58.210Z,99421.00
2018-09-21T19:32:27.165Z,99427.00
2018-09-21T19:34:56.316Z,99442.00
2018-09-21T19:37:25.252Z,99439.00
2018-09-21T19:39:54.397Z,99446.00
2018-09-21T19:42:23.452Z,99451.00
2018-09-21T19:44:52.598Z,99458.00
2018-09-21T19:47:21.803Z,99457.00
2018-09-21T19:49:50.939Z,99466.00
2018-09-21T19:52:20.149Z,99462.00
2018-09-21T19:54:49.410Z,99476.00
2018-09-21T19:57:18.574Z,99481.00
2018-09-21T19:59:47.513Z,99477.00
2018-09-21T20:02:16.732Z,99491.00
2018-09-21T20:04:45.907Z,99494.00
2018-09-21T20:07:15.092Z,99497.00
2018-09-21T20:09:44.293Z,99508.00
2018-09-21T20:12:13.651Z,99507.00
2018-09-21T20:14:42.607Z,99517.00
2018-09-21T20:17:12.006Z,99522.00
2018-09-21T20:19:41.233Z,99529.00
2018-09-21T20:22:11.435Z,99532.00
2018-09-21T20:24:40.326Z,99531.00
2018-09-21T20:27:09.272Z,99535.00
2018-09-21T20:29:38.186Z,99538.00
2018-09-21T20:32:13.068Z,99544.00
2018-09-21T20:34:42.029Z,99556.00
2018-09-21T20:37:11.046Z,99555.00
2018-09-21T20:39:40.066Z,99557.00
2018-09-21T20:42:09.413Z,99557.00
2018-09-21T20:44:38.405Z,99569.00
2018-09-21T20:47:07.618Z,99570.00
2018-09-21T20:49:36.803Z,99575.00
2018-09-21T20:52:06.003Z,99570.00
2018-09-21T20:54:41.911Z,99577.00
2018-09-21T20:57:11.101Z,99580.00
2018-09-21T20:59:40.030Z,99586.00
2018-09-21T21:02:09.009Z,99582.00
2018-09-21T21:04:38.191Z,99587.00
2018-09-21T21:07:07.158Z,99592.00
2018-09-21T21:09:36.381Z,99589.00
2018-09-21T21:12:05.335Z,99590.00
2018-09-21T21:14:34.493Z,99600.00
2018-09-21T21:17:03.660Z,99602.00
2018-09-21T21:19:32.908Z,99597.00
2018-09-21T21:22:02.093Z,99610.00
2018-09-21T21:24:31.306Z,99611.00
2018-09-21T21:27:00.509Z,99607.00
2018-09-21T21:29:29.481Z,99599.00
2018-09-21T21:31:58.467Z,99614.00
2018-09-21T21:34:27.720Z,99618.00
2018-09-21T21:36:56.662Z,99619.00
2018-09-21T21:39:25.863Z,99630.00
2018-09-21T21:41:54.762Z,99625.00
2018-09-21T21:44:23.928Z,99635.00
2018-09-21T21:46:53.101Z,99634.00
2018-09-21T21:49:22.007Z,99628.00
2018-09-21T21:51:50.972Z,99623.00
2018-09-21T21:54:20.163Z,99638.00
2018-09-21T21:56:49.079Z,99631.00
2018-09-21T21:59:18.285Z,99631.00
2018-09-21T22:01:48.382Z,99637.00
2018-09-21T22:04:18.408Z,99630.00
2018-09-21T22:06:47.608Z,99632.00
2018-09-21T22:09:16.568Z,99631.00
2018-09-21T22:11:50.791Z,99630.00
2018-09-21T22:14:19.754Z,99637.00
2018-09-21T22:16:48.655Z,99633.00
2018-09-21T22:19:17.817Z,99639.00
2018-09-21T22:21:46.837Z,99638.00
2018-09-21T22:24:15.988Z,99631.00
2018-09-21T22:26:44.985Z,99634.00
2018-09-21T22:29:14.120Z,99631.00
2018-09-21T22:31:43.263Z,99639.00
2018-09-21T22:34:12.465Z,99632.00
2018-09-21T22:36:41.699Z,99651.00
2018-09-21T22:39:11.072Z,99647.00
2018-09-21T22:41:40.461Z,99645.00
2018-09-21T22:44:09.407Z,99647.00
2018-09-21T22:46:38.617Z,99655.00
2018-09-21T22:49:11.180Z,99649.00
2018-09-21T22:51:40.339Z,99646.00
2018-09-21T22:54:09.560Z,99654.00
2018-09-21T22:56:38.739Z,99665.00
2018-09-21T22:59:07.979Z,99657.00
2018-09-21T23:01:37.112Z,99667.00
2018-09-21T23:04:06.437Z,99681.00
2018-09-21T23:06:35.612Z,99675.00
2018-09-21T23:09:06.992Z,99676.00
2018-09-21T23:11:36.206Z,99669.00
2018-09-21T23:14:05.152Z,99686.00
2018-09-21T23:16:34.072Z,99682.00
2018-09-21T23:19:02.980Z,99673.00
2018-09-21T23:21:31.951Z,99676.00
2018-09-21T23:24:01.280Z,99682.00
2018-09-21T23:26:30.215Z,99689.00
2018-09-21T23:28:59.650Z,99682.00
2018-09-21T23:31:28.560Z,99686.00
2018-09-21T23:33:57.542Z,99689.00
2018-09-21T23:36:26.495Z,99698.00
2018-09-21T23:38:55.738Z,99689.00
2018-09-21T23:41:24.888Z,99697.00
2018-09-21T23:43:54.055Z,99698.00
2018-09-21T23:46:22.987Z,99704.00
2018-09-21T23:48:52.195Z,99700.00
2018-09-21T23:51:21.399Z,99707.00
2018-09-21T23:53:50.580Z,99692.00
2018-09-21T23:56:19.757Z,99701.00
2018-09-21T23:58:48.937Z,99703.00
